createdAt,value
2019-03-25T00:00:30.097Z,0.00
2019-03-25T00:01:30.110Z,0.00
2019-03-25T00:02:30.124Z,0.00
2019-03-25T00:03:30.141Z,0.00
2019-03-25T00:04:30.149Z,0.00
2019-03-25T00:05:30.165Z,0.00
2019-03-25T00:06:30.177Z,0.00
2019-03-25T00:07:30.190Z,0.00
2019-03-25T00:08:30.203Z,0.00
2019-03-25T00:09:30.214Z,0.00
2019-03-25T00:10:30.227Z,0.00
2019-03-25T00:11:30.240Z,0.00
2019-03-25T00:12:30.252Z,0.00
2019-03-25T00:13:30.265Z,0.00
2019-03-25T00:14:30.280Z,0.00
2019-03-25T00:15:30.292Z,0.00
2019-03-25T00:16:30.305Z,0.00
2019-03-25T00:17:30.315Z,0.00
2019-03-25T00:18:30.341Z,0.00
2019-03-25T00:19:30.344Z,0.00
2019-03-25T00:20:30.361Z,0.00
2019-03-25T00:21:30.368Z,0.00
2019-03-25T00:22:30.383Z,0.00
2019-03-25T00:23:30.395Z,0.00
2019-03-25T00:24:38.678Z,0.00
2019-03-25T00:25:30.422Z,0.00
2019-03-25T00:26:30.435Z,0.00
2019-03-25T00:27:30.445Z,0.00
2019-03-25T00:28:30.460Z,0.00
2019-03-25T00:29:30.471Z,0.00
2019-03-25T00:30:30.486Z,0.00
2019-03-25T00:31:30.496Z,0.00
2019-03-25T00:32:30.509Z,0.00
2019-03-25T00:33:30.571Z,0.00
2019-03-25T00:34:30.535Z,0.00
2019-03-25T00:35:30.545Z,0.00
2019-03-25T00:36:30.564Z,0.00
2019-03-25T00:37:30.572Z,0.00
2019-03-25T00:38:30.587Z,0.00
2019-03-25T00:39:30.600Z,0.00
2019-03-25T00:40:30.611Z,0.00
2019-03-25T00:41:30.624Z,0.00
2019-03-25T00:42:30.637Z,0.00
2019-03-25T00:43:30.649Z,0.00
2019-03-25T00:44:30.661Z,0.00
2019-03-25T00:45:30.674Z,0.00
2019-03-25T00:46:30.687Z,0.00
2019-03-25T00:47:30.700Z,0.00
2019-03-25T00:48:30.714Z,0.00
2019-03-25T00:49:30.725Z,0.00
2019-03-25T00:50:30.739Z,0.00
2019-03-25T00:51:30.753Z,0.00
2019-03-25T00:52:30.765Z,0.00
2019-03-25T00:53:30.797Z,0.00
2019-03-25T00:54:30.824Z,0.00
2019-03-25T00:55:30.877Z,0.00
2019-03-25T00:56:30.874Z,0.00
2019-03-25T00:57:30.866Z,0.00
2019-03-25T00:58:30.869Z,0.00
2019-03-25T00:59:30.898Z,0.00
2019-03-25T01:00:30.935Z,0.00
2019-03-25T01:01:30.931Z,0.00
2019-03-25T01:02:30.928Z,0.00
2019-03-25T01:03:30.929Z,0.00
2019-03-25T01:04:30.967Z,0.00
2019-03-25T01:05:30.948Z,0.00
2019-03-25T01:06:30.947Z,0.00
2019-03-25T01:07:30.959Z,0.00
2019-03-25T01:08:30.971Z,0.00
2019-03-25T01:09:30.986Z,0.00
2019-03-25T01:10:30.999Z,0.00
2019-03-25T01:11:31.012Z,0.00
2019-03-25T01:12:31.029Z,0.00
2019-03-25T01:13:31.035Z,0.00
2019-03-25T01:14:31.100Z,0.00
2019-03-25T01:15:31.073Z,0.00
2019-03-25T01:16:31.080Z,0.00
2019-03-25T01:17:31.088Z,0.00
2019-03-25T01:18:31.104Z,0.00
2019-03-25T01:19:31.117Z,0.00
2019-03-25T01:20:31.130Z,0.00
2019-03-25T01:21:31.142Z,0.00
2019-03-25T01:22:31.155Z,0.00
2019-03-25T01:23:31.173Z,0.00
2019-03-25T01:24:31.185Z,0.00
2019-03-25T01:25:31.195Z,0.00
2019-03-25T01:26:31.208Z,0.00
2019-03-25T01:27:31.223Z,0.00
2019-03-25T01:28:31.239Z,0.00
2019-03-25T01:29:31.247Z,0.00
2019-03-25T01:30:31.261Z,0.00
2019-03-25T01:31:31.275Z,0.00
2019-03-25T01:32:31.286Z,0.00
2019-03-25T01:33:31.297Z,0.00
2019-03-25T01:34:31.314Z,0.00
2019-03-25T01:35:31.326Z,0.00
2019-03-25T01:36:31.337Z,0.00
2019-03-25T01:37:31.350Z,0.00
2019-03-25T01:38:31.363Z,0.00
2019-03-25T01:39:31.378Z,0.00
2019-03-25T01:40:31.391Z,0.00
2019-03-25T01:41:31.404Z,0.00
2019-03-25T01:42:31.417Z,0.00
2019-03-25T01:43:31.430Z,0.00
2019-03-25T01:44:31.442Z,0.00
2019-03-25T01:45:31.455Z,0.00
2019-03-25T01:46:31.469Z,0.00
2019-03-25T01:47:31.482Z,0.00
2019-03-25T01:48:31.493Z,0.00
2019-03-25T01:49:31.522Z,0.00
2019-03-25T01:50:31.519Z,0.00
2019-03-25T01:51:31.533Z,0.00
2019-03-25T01:52:31.546Z,0.00
2019-03-25T01:53:31.560Z,0.00
2019-03-25T01:54:31.572Z,0.00
2019-03-25T01:55:31.585Z,0.00
2019-03-25T01:56:31.594Z,0.00
2019-03-25T01:57:31.612Z,0.00
2019-03-25T01:58:31.625Z,0.00
2019-03-25T01:59:31.638Z,0.00
2019-03-25T02:00:31.653Z,0.00
2019-03-25T02:01:31.663Z,0.00
2019-03-25T02:02:31.686Z,0.00
2019-03-25T02:03:31.688Z,0.00
2019-03-25T02:04:31.703Z,0.00
2019-03-25T02:05:31.715Z,0.00
2019-03-25T02:06:31.726Z,0.00
2019-03-25T02:07:31.740Z,0.00
2019-03-25T02:08:31.755Z,0.00
2019-03-25T02:09:31.767Z,0.00
2019-03-25T02:10:31.779Z,0.00
2019-03-25T02:11:31.792Z,0.00
2019-03-25T02:12:31.809Z,0.00
2019-03-25T02:13:31.815Z,0.00
2019-03-25T02:14:31.828Z,0.00
2019-03-25T02:15:31.845Z,0.00
2019-03-25T02:16:31.858Z,0.00
2019-03-25T02:17:31.871Z,0.00
2019-03-25T02:18:31.881Z,0.00
2019-03-25T02:19:31.894Z,0.00
2019-03-25T02:20:31.908Z,0.00
2019-03-25T02:21:31.927Z,0.00
2019-03-25T02:22:31.981Z,0.00
2019-03-25T02:23:31.944Z,0.00
2019-03-25T02:24:31.961Z,0.00
2019-03-25T02:25:31.971Z,0.00
2019-03-25T02:26:31.983Z,0.00
2019-03-25T02:27:31.998Z,0.00
2019-03-25T02:28:32.010Z,0.00
2019-03-25T02:29:32.023Z,0.00
2019-03-25T02:30:32.042Z,0.00
2019-03-25T02:31:32.057Z,0.00
2019-03-25T02:32:32.074Z,0.00
2019-03-25T02:33:32.075Z,0.00
2019-03-25T02:34:32.092Z,0.00
2019-03-25T02:35:32.104Z,0.00
2019-03-25T02:36:32.113Z,0.00
2019-03-25T02:37:32.124Z,0.00
2019-03-25T02:38:32.138Z,0.00
2019-03-25T02:39:32.152Z,0.00
2019-03-25T02:40:32.167Z,0.00
2019-03-25T02:41:32.176Z,0.00
2019-03-25T02:42:32.188Z,0.00
2019-03-25T02:43:32.212Z,0.00
2019-03-25T02:44:32.213Z,0.00
2019-03-25T02:45:32.231Z,0.00
2019-03-25T02:46:32.241Z,0.00
2019-03-25T02:47:32.253Z,0.00
2019-03-25T02:48:32.265Z,0.00
2019-03-25T02:49:32.277Z,0.00
2019-03-25T02:50:32.289Z,0.00
2019-03-25T02:51:32.305Z,0.00
2019-03-25T02:52:32.311Z,0.00
2019-03-25T02:53:32.329Z,0.00
2019-03-25T02:54:32.341Z,0.00
2019-03-25T02:55:41.355Z,0.00
2019-03-25T02:56:32.371Z,0.00
2019-03-25T02:57:32.376Z,0.00
2019-03-25T02:58:32.392Z,0.00
2019-03-25T02:59:32.406Z,0.00
2019-03-25T03:00:32.415Z,0.00
2019-03-25T03:01:32.427Z,0.00
2019-03-25T03:02:32.441Z,0.00
2019-03-25T03:03:32.453Z,0.00
2019-03-25T03:04:32.463Z,0.00
2019-03-25T03:05:32.475Z,0.00
2019-03-25T03:06:32.490Z,0.00
2019-03-25T03:07:32.501Z,0.00
2019-03-25T03:08:32.512Z,0.00
2019-03-25T03:09:32.527Z,0.00
2019-03-25T03:10:32.540Z,0.00
2019-03-25T03:11:32.553Z,0.00
2019-03-25T03:12:32.562Z,0.00
2019-03-25T03:13:32.579Z,0.00
2019-03-25T03:14:32.589Z,0.00
2019-03-25T03:15:32.600Z,0.00
2019-03-25T03:16:32.629Z,0.00
2019-03-25T03:17:32.697Z,0.00
2019-03-25T03:18:32.694Z,0.00
2019-03-25T03:19:32.697Z,0.00
2019-03-25T03:20:32.694Z,0.00
2019-03-25T03:21:32.699Z,0.00
2019-03-25T03:22:32.757Z,0.00
2019-03-25T03:23:32.760Z,0.00
2019-03-25T03:24:32.753Z,0.00
2019-03-25T03:25:32.754Z,0.00
2019-03-25T03:26:32.761Z,0.00
2019-03-25T03:27:32.770Z,0.00
2019-03-25T03:28:32.761Z,0.00
2019-03-25T03:29:32.777Z,0.00
2019-03-25T03:30:32.891Z,0.00
2019-03-25T03:31:32.806Z,0.00
2019-03-25T03:32:32.818Z,0.00
2019-03-25T03:33:32.823Z,0.00
2019-03-25T03:34:32.835Z,0.00
2019-03-25T03:35:32.847Z,0.00
2019-03-25T03:36:32.858Z,0.00
2019-03-25T03:37:32.871Z,0.00
2019-03-25T03:38:32.884Z,0.00
2019-03-25T03:39:32.897Z,0.00
2019-03-25T03:40:32.913Z,0.00
2019-03-25T03:41:32.923Z,0.00
2019-03-25T03:42:32.935Z,0.00
2019-03-25T03:43:32.947Z,0.00
2019-03-25T03:44:32.972Z,0.00
2019-03-25T03:45:32.973Z,0.00
2019-03-25T03:46:32.983Z,0.00
2019-03-25T03:47:33.012Z,0.00
2019-03-25T03:48:33.009Z,0.00
2019-03-25T03:49:33.023Z,0.00
2019-03-25T03:50:33.038Z,0.00
2019-03-25T03:51:33.044Z,0.00
2019-03-25T03:52:33.055Z,0.00
2019-03-25T03:53:33.070Z,0.00
2019-03-25T03:54:33.082Z,0.00
2019-03-25T03:55:33.096Z,0.00
2019-03-25T03:56:33.105Z,0.00
2019-03-25T03:57:33.130Z,0.00
2019-03-25T03:58:33.131Z,0.00
2019-03-25T03:59:33.145Z,0.00
2019-03-25T04:00:33.153Z,0.00
2019-03-25T04:01:33.168Z,0.00
2019-03-25T04:02:33.182Z,0.00
2019-03-25T04:03:33.190Z,0.00
2019-03-25T04:04:33.201Z,0.00
2019-03-25T04:05:33.217Z,0.00
2019-03-25T04:06:33.229Z,0.00
2019-03-25T04:07:33.241Z,0.00
2019-03-25T04:08:33.261Z,0.00
2019-03-25T04:09:33.267Z,0.00
2019-03-25T04:10:33.277Z,0.00
2019-03-25T04:11:33.286Z,0.00
2019-03-25T04:12:33.302Z,0.00
2019-03-25T04:13:33.313Z,0.00
2019-03-25T04:14:33.327Z,0.00
2019-03-25T04:15:33.343Z,0.00
2019-03-25T04:16:33.350Z,0.00
2019-03-25T04:17:33.365Z,0.00
2019-03-25T04:18:33.375Z,0.00
2019-03-25T04:19:33.391Z,0.00
2019-03-25T04:20:33.404Z,0.00
2019-03-25T04:21:33.407Z,0.00
2019-03-25T04:22:33.423Z,0.00
2019-03-25T04:23:33.434Z,0.00
2019-03-25T04:24:33.444Z,0.00
2019-03-25T04:25:33.465Z,0.00
2019-03-25T04:26:33.473Z,0.00
2019-03-25T04:27:33.499Z,0.00
2019-03-25T04:28:33.499Z,0.00
2019-03-25T04:29:33.510Z,0.00
2019-03-25T04:30:33.518Z,0.00
2019-03-25T04:31:33.533Z,0.00
2019-03-25T04:32:33.540Z,0.00
2019-03-25T04:33:33.555Z,0.00
2019-03-25T04:34:33.569Z,0.00
2019-03-25T04:35:33.580Z,0.00
2019-03-25T04:36:33.595Z,0.00
2019-03-25T04:37:33.607Z,0.00
2019-03-25T04:38:33.616Z,0.00
2019-03-25T04:39:33.632Z,0.00
2019-03-25T04:40:33.644Z,0.00
2019-03-25T04:41:33.669Z,0.00
2019-03-25T04:42:33.666Z,0.00
2019-03-25T04:43:33.677Z,0.00
2019-03-25T04:44:33.690Z,0.00
2019-03-25T04:45:33.700Z,0.00
2019-03-25T04:46:33.714Z,0.00
2019-03-25T04:47:33.726Z,0.00
2019-03-25T04:48:33.740Z,0.00
2019-03-25T04:49:33.752Z,0.00
2019-03-25T04:50:33.763Z,5.63
2019-03-25T04:51:33.773Z,5.63
2019-03-25T04:52:33.789Z,5.63
2019-03-25T04:53:33.804Z,5.63
2019-03-25T04:54:33.814Z,5.63
2019-03-25T04:55:33.828Z,5.63
2019-03-25T04:56:39.625Z,5.63
2019-03-25T04:57:33.850Z,5.63
2019-03-25T04:58:33.865Z,5.63
2019-03-25T04:59:33.875Z,5.63
2019-03-25T05:00:33.890Z,5.63
2019-03-25T05:01:33.904Z,5.63
2019-03-25T05:02:33.917Z,5.63
2019-03-25T05:03:33.927Z,5.63
2019-03-25T05:04:33.940Z,5.63
2019-03-25T05:05:35.887Z,5.63
2019-03-25T05:06:33.964Z,5.63
2019-03-25T05:07:33.980Z,11.25
2019-03-25T05:08:33.990Z,16.88
2019-03-25T05:09:34.004Z,16.88
2019-03-25T05:10:34.015Z,16.88
2019-03-25T05:11:34.030Z,22.50
2019-03-25T05:12:34.041Z,22.50
2019-03-25T05:13:34.054Z,28.13
2019-03-25T05:14:34.068Z,28.13
2019-03-25T05:15:34.087Z,28.13
2019-03-25T05:16:34.090Z,33.75
2019-03-25T05:17:34.103Z,33.75
2019-03-25T05:18:34.117Z,39.38
2019-03-25T05:19:34.132Z,39.38
2019-03-25T05:20:34.145Z,33.75
2019-03-25T05:21:34.156Z,33.75
2019-03-25T05:22:34.170Z,28.13
2019-03-25T05:23:34.185Z,33.75
2019-03-25T05:24:34.193Z,33.75
2019-03-25T05:25:34.209Z,39.38
2019-03-25T05:26:34.221Z,45.00
2019-03-25T05:27:34.234Z,56.25
2019-03-25T05:28:34.246Z,67.50
2019-03-25T05:29:34.260Z,78.75
2019-03-25T05:30:34.274Z,95.63
2019-03-25T05:31:34.285Z,106.88
2019-03-25T05:32:34.298Z,95.63
2019-03-25T05:33:34.326Z,106.88
2019-03-25T05:34:34.328Z,112.50
2019-03-25T05:35:34.338Z,112.50
2019-03-25T05:36:34.352Z,112.50
2019-03-25T05:37:34.364Z,106.88
2019-03-25T05:38:34.376Z,84.38
2019-03-25T05:39:34.391Z,67.50
2019-03-25T05:40:34.403Z,67.50
2019-03-25T05:41:34.420Z,50.63
2019-03-25T05:42:34.445Z,39.38
2019-03-25T05:43:34.529Z,28.13
2019-03-25T05:44:34.518Z,22.50
2019-03-25T05:45:34.523Z,16.88
2019-03-25T05:46:34.516Z,11.25
2019-03-25T05:47:34.527Z,16.88
2019-03-25T05:48:34.582Z,11.25
2019-03-25T05:49:34.580Z,16.88
2019-03-25T05:50:34.583Z,22.50
2019-03-25T05:51:34.581Z,33.75
2019-03-25T05:52:34.583Z,39.38
2019-03-25T05:53:34.591Z,45.00
2019-03-25T05:54:34.591Z,50.63
2019-03-25T05:55:34.607Z,56.25
2019-03-25T05:56:34.615Z,50.63
2019-03-25T05:57:34.629Z,50.63
2019-03-25T05:58:34.648Z,61.88
2019-03-25T05:59:34.655Z,45.00
2019-03-25T06:00:34.667Z,45.00
2019-03-25T06:01:34.682Z,50.63
2019-03-25T06:02:34.695Z,73.13
2019-03-25T06:03:34.711Z,61.88
2019-03-25T06:04:34.720Z,73.13
2019-03-25T06:05:34.737Z,56.25
2019-03-25T06:06:34.751Z,45.00
2019-03-25T06:07:34.763Z,50.63
2019-03-25T06:08:34.772Z,61.88
2019-03-25T06:09:34.785Z,67.50
2019-03-25T06:10:34.801Z,61.88
2019-03-25T06:11:34.813Z,56.25
2019-03-25T06:12:34.824Z,50.63
2019-03-25T06:13:34.837Z,56.25
2019-03-25T06:14:34.854Z,56.25
2019-03-25T06:15:34.876Z,56.25
2019-03-25T06:16:34.874Z,73.13
2019-03-25T06:17:34.886Z,61.88
2019-03-25T06:18:34.902Z,50.63
2019-03-25T06:19:34.912Z,45.00
2019-03-25T06:20:34.924Z,50.63
2019-03-25T06:21:34.937Z,45.00
2019-03-25T06:22:34.951Z,33.75
2019-03-25T06:23:34.963Z,33.75
2019-03-25T06:24:34.975Z,33.75
2019-03-25T06:25:34.989Z,33.75
2019-03-25T06:26:35.000Z,33.75
2019-03-25T06:27:35.021Z,33.75
2019-03-25T06:28:35.026Z,33.75
2019-03-25T06:29:35.036Z,33.75
2019-03-25T06:30:35.049Z,39.38
2019-03-25T06:31:35.061Z,39.38
2019-03-25T06:32:35.076Z,45.00
2019-03-25T06:33:35.087Z,45.00
2019-03-25T06:34:35.101Z,45.00
2019-03-25T06:35:35.110Z,56.25
2019-03-25T06:36:35.126Z,50.63
2019-03-25T06:37:35.136Z,45.00
2019-03-25T06:38:35.148Z,45.00
2019-03-25T06:39:35.168Z,56.25
2019-03-25T06:40:35.177Z,56.25
2019-03-25T06:41:35.185Z,61.88
2019-03-25T06:42:35.196Z,61.88
2019-03-25T06:43:35.208Z,61.88
2019-03-25T06:44:35.219Z,61.88
2019-03-25T06:45:35.233Z,56.25
2019-03-25T06:46:35.247Z,56.25
2019-03-25T06:47:35.289Z,61.88
2019-03-25T06:48:35.269Z,61.88
2019-03-25T06:49:35.281Z,56.25
2019-03-25T06:50:35.293Z,56.25
2019-03-25T06:51:35.306Z,61.88
2019-03-25T06:52:35.322Z,67.50
2019-03-25T06:53:35.329Z,56.25
2019-03-25T06:54:35.341Z,56.25
2019-03-25T06:55:35.353Z,61.88
2019-03-25T06:56:35.364Z,61.88
2019-03-25T06:57:35.376Z,56.25
2019-03-25T06:58:35.388Z,61.88
2019-03-25T06:59:35.400Z,56.25
2019-03-25T07:00:35.410Z,73.13
2019-03-25T07:01:35.421Z,78.75
2019-03-25T07:02:35.434Z,84.38
2019-03-25T07:03:35.448Z,90.00
2019-03-25T07:04:35.457Z,84.38
2019-03-25T07:05:35.469Z,90.00
2019-03-25T07:06:35.482Z,101.25
2019-03-25T07:07:35.491Z,101.25
2019-03-25T07:08:35.503Z,106.88
2019-03-25T07:09:35.515Z,129.38
2019-03-25T07:10:35.525Z,140.63
2019-03-25T07:11:35.538Z,151.88
2019-03-25T07:12:35.551Z,151.88
2019-03-25T07:13:35.562Z,157.50
2019-03-25T07:14:35.578Z,157.50
2019-03-25T07:15:35.584Z,123.75
2019-03-25T07:16:35.598Z,123.75
2019-03-25T07:17:35.611Z,135.00
2019-03-25T07:18:35.621Z,191.25
2019-03-25T07:19:35.632Z,180.00
2019-03-25T07:20:35.644Z,151.88
2019-03-25T07:21:35.655Z,140.63
2019-03-25T07:22:35.668Z,146.25
2019-03-25T07:23:35.679Z,151.88
2019-03-25T07:24:35.687Z,185.63
2019-03-25T07:25:35.700Z,202.50
2019-03-25T07:26:35.711Z,163.13
2019-03-25T07:27:36.999Z,168.75
2019-03-25T07:28:35.736Z,151.88
2019-03-25T07:29:35.746Z,146.25
2019-03-25T07:30:35.760Z,191.25
2019-03-25T07:31:35.770Z,208.13
2019-03-25T07:32:35.781Z,168.75
2019-03-25T07:33:35.793Z,135.00
2019-03-25T07:34:35.805Z,123.75
2019-03-25T07:35:35.818Z,157.50
2019-03-25T07:36:35.828Z,230.63
2019-03-25T07:37:35.842Z,286.88
2019-03-25T07:38:35.855Z,275.63
2019-03-25T07:39:35.865Z,270.00
2019-03-25T07:40:35.878Z,303.75
2019-03-25T07:41:35.890Z,213.75
2019-03-25T07:42:35.902Z,270.00
2019-03-25T07:43:35.914Z,230.63
2019-03-25T07:44:35.934Z,208.13
2019-03-25T07:45:35.937Z,196.88
2019-03-25T07:46:35.949Z,180.00
2019-03-25T07:47:35.964Z,151.88
2019-03-25T07:48:35.975Z,168.75
2019-03-25T07:49:35.988Z,185.63
2019-03-25T07:50:35.999Z,163.13
2019-03-25T07:51:36.013Z,174.38
2019-03-25T07:52:36.031Z,236.25
2019-03-25T07:53:36.038Z,236.25
2019-03-25T07:54:36.052Z,292.50
2019-03-25T07:55:36.065Z,298.13
2019-03-25T07:56:36.085Z,309.38
2019-03-25T07:57:43.710Z,264.38
2019-03-25T07:58:36.101Z,298.13
2019-03-25T07:59:36.112Z,309.38
2019-03-25T08:00:36.126Z,264.38
2019-03-25T08:01:36.136Z,264.38
2019-03-25T08:02:36.150Z,241.88
2019-03-25T08:03:36.174Z,247.50
2019-03-25T08:04:38.616Z,331.88
2019-03-25T08:05:36.199Z,247.50
2019-03-25T08:06:36.204Z,258.75
2019-03-25T08:07:36.221Z,247.50
2019-03-25T08:08:36.225Z,225.00
2019-03-25T08:09:36.258Z,247.50
2019-03-25T08:10:36.285Z,303.75
2019-03-25T08:11:36.320Z,286.88
2019-03-25T08:12:36.350Z,315.00
2019-03-25T08:13:36.359Z,376.88
2019-03-25T08:14:36.355Z,410.63
2019-03-25T08:15:36.373Z,365.63
2019-03-25T08:16:36.396Z,331.88
2019-03-25T08:17:36.412Z,348.75
2019-03-25T08:18:36.404Z,466.88
2019-03-25T08:19:36.401Z,511.88
2019-03-25T08:20:36.396Z,483.75
2019-03-25T08:21:36.394Z,382.50
2019-03-25T08:22:36.409Z,337.50
2019-03-25T08:23:36.420Z,286.88
2019-03-25T08:24:36.435Z,264.38
2019-03-25T08:25:36.448Z,270.00
2019-03-25T08:26:36.461Z,230.63
2019-03-25T08:27:36.473Z,219.38
2019-03-25T08:28:36.491Z,230.63
2019-03-25T08:29:36.500Z,180.00
2019-03-25T08:30:36.514Z,225.00
2019-03-25T08:31:36.529Z,180.00
2019-03-25T08:32:36.555Z,213.75
2019-03-25T08:33:36.558Z,202.50
2019-03-25T08:34:36.569Z,236.25
2019-03-25T08:35:36.581Z,219.38
2019-03-25T08:36:36.595Z,213.75
2019-03-25T08:37:36.607Z,213.75
2019-03-25T08:38:36.624Z,208.13
2019-03-25T08:39:36.637Z,241.88
2019-03-25T08:40:36.647Z,247.50
2019-03-25T08:41:36.660Z,241.88
2019-03-25T08:42:36.679Z,281.25
2019-03-25T08:43:36.691Z,275.63
2019-03-25T08:44:36.702Z,258.75
2019-03-25T08:45:36.716Z,298.13
2019-03-25T08:46:36.730Z,393.75
2019-03-25T08:47:36.747Z,303.75
2019-03-25T08:48:36.762Z,354.38
2019-03-25T08:49:36.778Z,450.00
2019-03-25T08:50:36.785Z,455.63
2019-03-25T08:51:36.799Z,382.50
2019-03-25T08:52:36.810Z,393.75
2019-03-25T08:53:36.825Z,399.38
2019-03-25T08:54:37.928Z,450.00
2019-03-25T08:55:36.851Z,573.75
2019-03-25T08:56:36.866Z,455.63
2019-03-25T08:57:36.881Z,343.13
2019-03-25T08:58:36.894Z,416.25
2019-03-25T08:59:36.910Z,556.88
2019-03-25T09:00:36.922Z,585.00
2019-03-25T09:01:36.941Z,483.75
2019-03-25T09:02:36.955Z,495.00
2019-03-25T09:03:36.964Z,461.25
2019-03-25T09:04:36.979Z,348.75
2019-03-25T09:05:37.002Z,393.75
2019-03-25T09:06:37.011Z,500.63
2019-03-25T09:07:37.080Z,551.25
2019-03-25T09:08:37.037Z,607.50
2019-03-25T09:09:37.051Z,562.50
2019-03-25T09:10:37.068Z,641.25
2019-03-25T09:11:37.081Z,483.75
2019-03-25T09:12:37.093Z,399.38
2019-03-25T09:13:37.108Z,461.25
2019-03-25T09:14:37.125Z,506.25
2019-03-25T09:15:37.139Z,545.63
2019-03-25T09:16:37.151Z,573.75
2019-03-25T09:17:37.166Z,652.50
2019-03-25T09:18:37.183Z,500.63
2019-03-25T09:19:37.196Z,399.38
2019-03-25T09:20:37.214Z,382.50
2019-03-25T09:21:37.226Z,461.25
2019-03-25T09:22:37.244Z,500.63
2019-03-25T09:23:37.258Z,455.63
2019-03-25T09:24:37.272Z,461.25
2019-03-25T09:25:37.285Z,534.38
2019-03-25T09:26:37.302Z,472.50
2019-03-25T09:27:37.316Z,748.13
2019-03-25T09:28:37.333Z,1125.00
2019-03-25T09:29:37.345Z,1158.75
2019-03-25T09:30:37.360Z,838.13
2019-03-25T09:31:37.374Z,691.88
2019-03-25T09:32:37.386Z,759.38
2019-03-25T09:33:37.407Z,601.88
2019-03-25T09:34:37.421Z,708.75
2019-03-25T09:35:37.435Z,579.38
2019-03-25T09:36:37.451Z,618.75
2019-03-25T09:37:37.468Z,860.63
2019-03-25T09:38:37.489Z,1063.13
2019-03-25T09:39:37.497Z,990.00
2019-03-25T09:40:37.516Z,1012.50
2019-03-25T09:41:37.530Z,1029.38
2019-03-25T09:42:37.546Z,939.38
2019-03-25T09:43:37.561Z,1080.00
2019-03-25T09:44:37.577Z,990.00
2019-03-25T09:45:37.592Z,888.75
2019-03-25T09:46:37.610Z,888.75
2019-03-25T09:47:37.955Z,832.50
2019-03-25T09:48:37.641Z,731.25
2019-03-25T09:49:37.658Z,517.50
2019-03-25T09:50:37.675Z,331.88
2019-03-25T09:51:37.692Z,230.63
2019-03-25T09:52:38.719Z,202.50
2019-03-25T09:53:37.726Z,326.25
2019-03-25T09:54:37.740Z,399.38
2019-03-25T09:55:37.758Z,506.25
2019-03-25T09:56:37.776Z,641.25
2019-03-25T09:57:37.791Z,793.13
2019-03-25T09:58:37.808Z,1125.00
2019-03-25T09:59:37.823Z,1046.25
2019-03-25T10:00:37.845Z,1141.88
2019-03-25T10:01:37.862Z,1102.50
2019-03-25T10:02:37.872Z,1080.00
2019-03-25T10:03:37.889Z,928.13
2019-03-25T10:04:37.905Z,922.50
2019-03-25T10:05:37.925Z,832.50
2019-03-25T10:06:37.938Z,877.50
2019-03-25T10:07:37.956Z,753.75
2019-03-25T10:08:37.973Z,686.25
2019-03-25T10:09:37.991Z,866.25
2019-03-25T10:10:38.006Z,855.00
2019-03-25T10:11:38.030Z,753.75
2019-03-25T10:12:38.040Z,590.63
2019-03-25T10:13:38.058Z,545.63
2019-03-25T10:14:38.076Z,438.75
2019-03-25T10:15:38.102Z,416.25
2019-03-25T10:16:38.196Z,371.25
2019-03-25T10:17:38.183Z,326.25
2019-03-25T10:18:38.185Z,382.50
2019-03-25T10:19:38.186Z,450.00
2019-03-25T10:20:38.257Z,658.13
2019-03-25T10:21:38.251Z,686.25
2019-03-25T10:22:38.248Z,759.38
2019-03-25T10:23:38.262Z,770.63
2019-03-25T10:24:38.247Z,826.88
2019-03-25T10:25:38.260Z,1023.75
2019-03-25T10:26:38.280Z,1051.88
2019-03-25T10:27:38.295Z,1001.25
2019-03-25T10:28:47.801Z,956.25
2019-03-25T10:29:38.330Z,911.25
2019-03-25T10:30:38.345Z,961.88
2019-03-25T10:31:38.362Z,860.63
2019-03-25T10:32:38.378Z,821.25
2019-03-25T10:33:38.397Z,849.38
2019-03-25T10:34:38.412Z,877.50
2019-03-25T10:35:38.430Z,855.00
2019-03-25T10:36:38.446Z,787.50
2019-03-25T10:37:38.461Z,770.63
2019-03-25T10:38:38.480Z,860.63
2019-03-25T10:39:38.498Z,905.63
2019-03-25T10:40:38.515Z,849.38
2019-03-25T10:41:38.683Z,691.88
2019-03-25T10:42:38.547Z,635.63
2019-03-25T10:43:38.568Z,630.00
2019-03-25T10:44:38.580Z,540.00
2019-03-25T10:45:38.599Z,635.63
2019-03-25T10:46:38.617Z,810.00
2019-03-25T10:47:38.634Z,832.50
2019-03-25T10:48:38.648Z,579.38
2019-03-25T10:49:38.665Z,466.88
2019-03-25T10:50:38.683Z,517.50
2019-03-25T10:51:38.699Z,641.25
2019-03-25T10:52:38.716Z,894.38
2019-03-25T10:53:38.735Z,1113.75
2019-03-25T10:54:38.799Z,1113.75
2019-03-25T10:55:38.767Z,1406.25
2019-03-25T10:56:41.873Z,956.25
2019-03-25T10:57:38.801Z,905.63
2019-03-25T10:58:38.819Z,1327.50
2019-03-25T10:59:38.834Z,1198.13
2019-03-25T11:00:38.851Z,1113.75
2019-03-25T11:01:38.872Z,1355.63
2019-03-25T11:02:38.887Z,1355.63
2019-03-25T11:03:38.904Z,1136.25
2019-03-25T11:04:38.920Z,967.50
2019-03-25T11:05:38.937Z,793.13
2019-03-25T11:06:38.956Z,815.63
2019-03-25T11:07:39.125Z,978.75
2019-03-25T11:08:38.991Z,1023.75
2019-03-25T11:09:39.005Z,1254.38
2019-03-25T11:10:39.028Z,1485.00
2019-03-25T11:11:39.044Z,1305.00
2019-03-25T11:12:39.059Z,1130.63
2019-03-25T11:13:39.079Z,1198.13
2019-03-25T11:14:39.100Z,1468.13
2019-03-25T11:15:39.114Z,1355.63
2019-03-25T11:16:39.131Z,961.88
2019-03-25T11:17:39.151Z,658.13
2019-03-25T11:18:39.168Z,433.13
2019-03-25T11:19:39.187Z,371.25
2019-03-25T11:20:39.204Z,236.25
2019-03-25T11:21:39.223Z,168.75
2019-03-25T11:22:39.241Z,174.38
2019-03-25T11:23:39.258Z,219.38
2019-03-25T11:24:39.278Z,270.00
2019-03-25T11:25:39.295Z,292.50
2019-03-25T11:26:39.312Z,320.63
2019-03-25T11:27:39.327Z,320.63
2019-03-25T11:28:39.345Z,331.88
2019-03-25T11:29:39.364Z,472.50
2019-03-25T11:30:39.379Z,714.38
2019-03-25T11:31:39.395Z,652.50
2019-03-25T11:32:39.409Z,511.88
2019-03-25T11:33:39.430Z,382.50
2019-03-25T11:34:39.445Z,382.50
2019-03-25T11:35:39.461Z,348.75
2019-03-25T11:36:39.476Z,331.88
2019-03-25T11:37:39.494Z,326.25
2019-03-25T11:38:39.509Z,320.63
2019-03-25T11:39:39.524Z,320.63
2019-03-25T11:40:39.539Z,320.63
2019-03-25T11:41:39.559Z,320.63
2019-03-25T11:42:39.573Z,315.00
2019-03-25T11:43:39.590Z,320.63
2019-03-25T11:44:39.603Z,326.25
2019-03-25T11:45:39.620Z,331.88
2019-03-25T11:46:39.634Z,438.75
2019-03-25T11:47:39.651Z,720.00
2019-03-25T11:48:39.669Z,787.50
2019-03-25T11:49:39.680Z,590.63
2019-03-25T11:50:39.696Z,697.50
2019-03-25T11:51:39.712Z,860.63
2019-03-25T11:52:39.727Z,838.13
2019-03-25T11:53:39.742Z,849.38
2019-03-25T11:54:39.758Z,759.38
2019-03-25T11:55:39.777Z,686.25
2019-03-25T11:56:39.789Z,579.38
2019-03-25T11:57:39.804Z,500.63
2019-03-25T11:58:39.821Z,635.63
2019-03-25T11:59:39.836Z,860.63
2019-03-25T12:00:39.852Z,855.00
2019-03-25T12:01:39.873Z,888.75
2019-03-25T12:02:39.885Z,883.13
2019-03-25T12:03:39.901Z,708.75
2019-03-25T12:04:39.923Z,483.75
2019-03-25T12:05:40.707Z,691.88
2019-03-25T12:06:39.951Z,798.75
2019-03-25T12:07:39.975Z,731.25
2019-03-25T12:08:40.023Z,613.13
2019-03-25T12:09:41.543Z,568.13
2019-03-25T12:10:40.058Z,579.38
2019-03-25T12:11:40.114Z,601.88
2019-03-25T12:12:40.104Z,635.63
2019-03-25T12:13:40.121Z,753.75
2019-03-25T12:14:40.117Z,731.25
2019-03-25T12:15:40.123Z,562.50
2019-03-25T12:16:40.124Z,393.75
2019-03-25T12:17:40.131Z,275.63
2019-03-25T12:18:40.146Z,213.75
2019-03-25T12:19:40.164Z,163.13
2019-03-25T12:20:40.179Z,157.50
2019-03-25T12:21:40.199Z,196.88
2019-03-25T12:22:40.212Z,236.25
2019-03-25T12:23:40.228Z,270.00
2019-03-25T12:24:40.247Z,393.75
2019-03-25T12:25:40.264Z,444.38
2019-03-25T12:26:40.278Z,461.25
2019-03-25T12:27:40.612Z,399.38
2019-03-25T12:28:40.315Z,365.63
2019-03-25T12:29:40.325Z,320.63
2019-03-25T12:30:40.341Z,326.25
2019-03-25T12:31:40.357Z,315.00
2019-03-25T12:32:40.374Z,315.00
2019-03-25T12:33:40.403Z,309.38
2019-03-25T12:34:40.416Z,315.00
2019-03-25T12:35:40.429Z,309.38
2019-03-25T12:36:40.439Z,309.38
2019-03-25T12:37:40.460Z,303.75
2019-03-25T12:38:40.469Z,298.13
2019-03-25T12:39:40.486Z,292.50
2019-03-25T12:40:40.501Z,281.25
2019-03-25T12:41:40.524Z,258.75
2019-03-25T12:42:40.533Z,258.75
2019-03-25T12:43:40.550Z,258.75
2019-03-25T12:44:40.563Z,247.50
2019-03-25T12:45:40.580Z,253.13
2019-03-25T12:46:40.598Z,264.38
2019-03-25T12:47:40.611Z,286.88
2019-03-25T12:48:40.625Z,410.63
2019-03-25T12:49:40.640Z,337.50
2019-03-25T12:50:40.658Z,292.50